sensor_id;sensor_type;location;lat;lon;timestamp;temperature;humidity
21787;DHT22;11055;50.870;4.316;2023-02-01T00:01:34;7.50;99.90
21787;DHT22;11055;50.870;4.316;2023-02-01T00:03:59;7.50;99.90
21787;DHT22;11055;50.870;4.316;2023-02-01T00:06:25;7.50;99.90
21787;DHT22;11055;50.870;4.316;2023-02-01T00:08:55;7.50;99.90
21787;DHT22;11055;50.870;4.316;2023-02-01T00:11:21;7.50;99.90
21787;DHT22;11055;50.870;4.316;2023-02-01T00:13:47;7.50;99.90
21787;DHT22;11055;50.870;4.316;2023-02-01T00:16:19;7.40;99.90
21787;DHT22;11055;50.870;4.316;2023-02-01T00:18:46;7.40;99.90
21787;DHT22;11055;50.870;4.316;2023-02-01T00:21:14;7.40;99.90
21787;DHT22;11055;50.870;4.316;2023-02-01T00:23:40;7.40;99.90
21787;DHT22;11055;50.870;4.316;2023-02-01T00:26:10;7.40;99.90
21787;DHT22;11055;50.870;4.316;2023-02-01T00:28:37;7.40;99.90
21787;DHT22;11055;50.870;4.316;2023-02-01T00:31:04;7.40;99.90
21787;DHT22;11055;50.870;4.316;2023-02-01T00:33:30;7.40;99.90
21787;DHT22;11055;50.870;4.316;2023-02-01T00:36:04;7.40;99.90
21787;DHT22;11055;50.870;4.316;2023-02-01T00:38:30;7.40;99.90
21787;DHT22;11055;50.870;4.316;2023-02-01T00:43:33;7.40;99.90
21787;DHT22;11055;50.870;4.316;2023-02-01T00:45:59;7.40;99.90
21787;DHT22;11055;50.870;4.316;2023-02-01T00:48:25;7.40;99.90
21787;DHT22;11055;50.870;4.316;2023-02-01T00:50:51;7.40;99.90
21787;DHT22;11055;50.870;4.316;2023-02-01T00:53:17;7.40;99.90
21787;DHT22;11055;50.870;4.316;2023-02-01T00:55:47;7.40;99.90
21787;DHT22;11055;50.870;4.316;2023-02-01T00:58:13;7.40;99.90
21787;DHT22;11055;50.870;4.316;2023-02-01T01:00:38;7.40;99.90
21787;DHT22;11055;50.870;4.316;2023-02-01T01:03:04;7.40;99.90
21787;DHT22;11055;50.870;4.316;2023-02-01T01:05:47;7.40;99.90
21787;DHT22;11055;50.870;4.316;2023-02-01T01:08:13;7.40;99.90
21787;DHT22;11055;50.870;4.316;2023-02-01T01:10:39;7.30;99.90
21787;DHT22;11055;50.870;4.316;2023-02-01T01:13:04;7.40;99.90
21787;DHT22;11055;50.870;4.316;2023-02-01T01:15:30;7.40;99.90
21787;DHT22;11055;50.870;4.316;2023-02-01T01:17:56;7.40;99.90
21787;DHT22;11055;50.870;4.316;2023-02-01T01:20:21;7.30;99.90
21787;DHT22;11055;50.870;4.316;2023-02-01T01:22:48;7.30;99.90
21787;DHT22;11055;50.870;4.316;2023-02-01T01:25:14;7.30;99.90
21787;DHT22;11055;50.870;4.316;2023-02-01T01:27:39;7.30;99.90
21787;DHT22;11055;50.870;4.316;2023-02-01T01:30:06;7.20;99.90
21787;DHT22;11055;50.870;4.316;2023-02-01T01:32:33;7.20;99.90
21787;DHT22;11055;50.870;4.316;2023-02-01T01:34:58;7.30;99.90
21787;DHT22;11055;50.870;4.316;2023-02-01T01:37:24;7.20;99.90
21787;DHT22;11055;50.870;4.316;2023-02-01T01:39:50;7.20;99.90
21787;DHT22;11055;50.870;4.316;2023-02-01T01:42:15;7.20;99.90
21787;DHT22;11055;50.870;4.316;2023-02-01T01:47:22;7.20;99.90
21787;DHT22;11055;50.870;4.316;2023-02-01T01:49:48;7.20;99.90
21787;DHT22;11055;50.870;4.316;2023-02-01T01:52:14;7.20;99.90
21787;DHT22;11055;50.870;4.316;2023-02-01T01:54:45;7.20;99.90
21787;DHT22;11055;50.870;4.316;2023-02-01T01:57:18;7.20;99.90
21787;DHT22;11055;50.870;4.316;2023-02-01T01:59:50;7.10;99.90
21787;DHT22;11055;50.870;4.316;2023-02-01T02:02:18;7.10;99.90
21787;DHT22;11055;50.870;4.316;2023-02-01T02:04:44;7.10;99.90
21787;DHT22;11055;50.870;4.316;2023-02-01T02:07:14;7.20;99.90
21787;DHT22;11055;50.870;4.316;2023-02-01T02:09:41;7.10;99.90
21787;DHT22;11055;50.870;4.316;2023-02-01T02:12:09;7.00;99.90
21787;DHT22;11055;50.870;4.316;2023-02-01T02:14:35;7.00;99.90
21787;DHT22;11055;50.870;4.316;2023-02-01T02:17:14;6.90;99.90
21787;DHT22;11055;50.870;4.316;2023-02-01T02:30:59;6.90;99.90
21787;DHT22;11055;50.870;4.316;2023-02-01T02:36:10;6.90;99.90
21787;DHT22;11055;50.870;4.316;2023-02-01T02:44:57;7.00;99.90
21787;DHT22;11055;50.870;4.316;2023-02-01T02:53:03;7.00;99.90
21787;DHT22;11055;50.870;4.316;2023-02-01T02:55:51;6.90;99.90
21787;DHT22;11055;50.870;4.316;2023-02-01T02:58:18;6.90;99.90
21787;DHT22;11055;50.870;4.316;2023-02-01T03:01:03;6.80;99.90
21787;DHT22;11055;50.870;4.316;2023-02-01T03:03:48;6.80;99.90
21787;DHT22;11055;50.870;4.316;2023-02-01T03:06:34;6.80;99.90
21787;DHT22;11055;50.870;4.316;2023-02-01T03:09:01;6.70;99.90
21787;DHT22;11055;50.870;4.316;2023-02-01T03:11:29;6.70;99.90
21787;DHT22;11055;50.870;4.316;2023-02-01T03:14:18;6.70;99.90
21787;DHT22;11055;50.870;4.316;2023-02-01T03:16:58;6.70;99.90
21787;DHT22;11055;50.870;4.316;2023-02-01T03:19:37;6.70;99.90
21787;DHT22;11055;50.870;4.316;2023-02-01T03:22:12;6.70;99.90
21787;DHT22;11055;50.870;4.316;2023-02-01T03:24:40;6.70;99.90
21787;DHT22;11055;50.870;4.316;2023-02-01T03:29:49;6.70;99.90
21787;DHT22;11055;50.870;4.316;2023-02-01T03:32:17;6.60;99.90
21787;DHT22;11055;50.870;4.316;2023-02-01T03:34:43;6.60;99.90
21787;DHT22;11055;50.870;4.316;2023-02-01T03:37:10;6.60;99.90
21787;DHT22;11055;50.870;4.316;2023-02-01T03:42:24;6.60;99.90
21787;DHT22;11055;50.870;4.316;2023-02-01T03:45:16;6.60;99.90
21787;DHT22;11055;50.870;4.316;2023-02-01T03:47:47;6.50;99.90
21787;DHT22;11055;50.870;4.316;2023-02-01T03:50:18;6.50;99.90
21787;DHT22;11055;50.870;4.316;2023-02-01T03:52:55;6.60;99.90
21787;DHT22;11055;50.870;4.316;2023-02-01T03:55:24;6.50;99.90
21787;DHT22;11055;50.870;4.316;2023-02-01T03:58:06;6.50;99.90
21787;DHT22;11055;50.870;4.316;2023-02-01T04:00:32;6.40;99.90
21787;DHT22;11055;50.870;4.316;2023-02-01T04:02:58;6.40;99.90
21787;DHT22;11055;50.870;4.316;2023-02-01T04:05:24;6.40;99.90
21787;DHT22;11055;50.870;4.316;2023-02-01T04:07:50;6.40;99.90
21787;DHT22;11055;50.870;4.316;2023-02-01T04:10:16;6.30;99.90
21787;DHT22;11055;50.870;4.316;2023-02-01T04:12:42;6.30;99.90
21787;DHT22;11055;50.870;4.316;2023-02-01T04:15:08;6.30;99.90
21787;DHT22;11055;50.870;4.316;2023-02-01T04:17:34;6.30;99.90
21787;DHT22;11055;50.870;4.316;2023-02-01T04:19:59;6.20;99.90
21787;DHT22;11055;50.870;4.316;2023-02-01T04:22:25;6.20;99.90
21787;DHT22;11055;50.870;4.316;2023-02-01T04:24:51;6.20;99.90
21787;DHT22;11055;50.870;4.316;2023-02-01T04:27:17;6.20;99.90
21787;DHT22;11055;50.870;4.316;2023-02-01T04:29:42;6.10;99.90
21787;DHT22;11055;50.870;4.316;2023-02-01T04:32:10;6.20;99.90
21787;DHT22;11055;50.870;4.316;2023-02-01T04:34:36;6.10;99.90
21787;DHT22;11055;50.870;4.316;2023-02-01T04:37:02;6.10;99.90
21787;DHT22;11055;50.870;4.316;2023-02-01T04:39:27;6.00;99.90
21787;DHT22;11055;50.870;4.316;2023-02-01T04:41:53;6.00;99.90
21787;DHT22;11055;50.870;4.316;2023-02-01T04:44:19;6.00;99.90
21787;DHT22;11055;50.870;4.316;2023-02-01T04:46:46;6.00;99.90
21787;DHT22;11055;50.870;4.316;2023-02-01T04:49:12;6.00;99.90
21787;DHT22;11055;50.870;4.316;2023-02-01T04:51:38;6.00;99.90
21787;DHT22;11055;50.870;4.316;2023-02-01T04:54:04;5.90;99.90
21787;DHT22;11055;50.870;4.316;2023-02-01T04:56:30;5.90;99.90
21787;DHT22;11055;50.870;4.316;2023-02-01T04:58:56;5.90;99.90
21787;DHT22;11055;50.870;4.316;2023-02-01T05:01:22;5.90;99.90
21787;DHT22;11055;50.870;4.316;2023-02-01T05:03:50;5.90;99.90
21787;DHT22;11055;50.870;4.316;2023-02-01T05:06:16;5.80;99.90
21787;DHT22;11055;50.870;4.316;2023-02-01T05:08:41;5.80;99.90
21787;DHT22;11055;50.870;4.316;2023-02-01T05:11:07;5.80;99.90
21787;DHT22;11055;50.870;4.316;2023-02-01T05:13:52;5.80;99.90
21787;DHT22;11055;50.870;4.316;2023-02-01T05:16:18;5.80;99.90
21787;DHT22;11055;50.870;4.316;2023-02-01T05:18:44;5.80;99.90
21787;DHT22;11055;50.870;4.316;2023-02-01T05:21:10;5.80;99.90
21787;DHT22;11055;50.870;4.316;2023-02-01T05:23:35;5.70;99.90
21787;DHT22;11055;50.870;4.316;2023-02-01T05:26:21;5.80;99.90
21787;DHT22;11055;50.870;4.316;2023-02-01T05:28:46;5.70;99.90
21787;DHT22;11055;50.870;4.316;2023-02-01T05:31:12;5.70;99.90
21787;DHT22;11055;50.870;4.316;2023-02-01T05:33:38;5.70;99.90
21787;DHT22;11055;50.870;4.316;2023-02-01T05:36:03;5.70;99.90
21787;DHT22;11055;50.870;4.316;2023-02-01T05:38:29;5.70;99.90
21787;DHT22;11055;50.870;4.316;2023-02-01T05:40:55;5.70;99.90
21787;DHT22;11055;50.870;4.316;2023-02-01T05:43:21;5.70;99.90
21787;DHT22;11055;50.870;4.316;2023-02-01T05:45:47;5.70;99.90
21787;DHT22;11055;50.870;4.316;2023-02-01T05:48:13;5.70;99.90
21787;DHT22;11055;50.870;4.316;2023-02-01T05:50:39;5.70;99.90
21787;DHT22;11055;50.870;4.316;2023-02-01T05:53:05;5.70;99.90
21787;DHT22;11055;50.870;4.316;2023-02-01T05:55:31;5.70;99.90
21787;DHT22;11055;50.870;4.316;2023-02-01T05:57:56;5.70;99.90
21787;DHT22;11055;50.870;4.316;2023-02-01T06:00:22;5.70;99.90
21787;DHT22;11055;50.870;4.316;2023-02-01T06:02:48;5.70;99.90
21787;DHT22;11055;50.870;4.316;2023-02-01T06:05:14;5.70;99.90
21787;DHT22;11055;50.870;4.316;2023-02-01T06:07:39;5.60;99.90
21787;DHT22;11055;50.870;4.316;2023-02-01T06:10:05;5.50;99.90
21787;DHT22;11055;50.870;4.316;2023-02-01T06:12:32;5.60;99.90
21787;DHT22;11055;50.870;4.316;2023-02-01T06:14:57;5.60;99.90
21787;DHT22;11055;50.870;4.316;2023-02-01T06:17:24;5.50;99.90
21787;DHT22;11055;50.870;4.316;2023-02-01T06:19:50;5.60;99.90
21787;DHT22;11055;50.870;4.316;2023-02-01T06:22:16;5.60;99.90
21787;DHT22;11055;50.870;4.316;2023-02-01T06:24:42;5.60;99.90
21787;DHT22;11055;50.870;4.316;2023-02-01T06:27:08;5.70;99.90
21787;DHT22;11055;50.870;4.316;2023-02-01T06:29:34;5.60;99.90
21787;DHT22;11055;50.870;4.316;2023-02-01T06:32:00;5.60;99.90
21787;DHT22;11055;50.870;4.316;2023-02-01T06:34:26;5.60;99.90
21787;DHT22;11055;50.870;4.316;2023-02-01T06:36:51;5.60;99.90
21787;DHT22;11055;50.870;4.316;2023-02-01T06:39:17;5.70;99.90
21787;DHT22;11055;50.870;4.316;2023-02-01T06:41:46;5.70;99.90
21787;DHT22;11055;50.870;4.316;2023-02-01T06:44:12;5.70;99.90
21787;DHT22;11055;50.870;4.316;2023-02-01T06:46:38;5.70;99.90
21787;DHT22;11055;50.870;4.316;2023-02-01T06:49:04;5.70;99.90
21787;DHT22;11055;50.870;4.316;2023-02-01T06:51:29;5.70;99.90
21787;DHT22;11055;50.870;4.316;2023-02-01T06:53:56;5.70;99.90
21787;DHT22;11055;50.870;4.316;2023-02-01T06:56:22;5.70;99.90
21787;DHT22;11055;50.870;4.316;2023-02-01T06:58:48;5.70;99.90
21787;DHT22;11055;50.870;4.316;2023-02-01T07:01:14;5.70;99.90
21787;DHT22;11055;50.870;4.316;2023-02-01T07:03:40;5.70;99.90
21787;DHT22;11055;50.870;4.316;2023-02-01T07:06:07;5.70;99.90
21787;DHT22;11055;50.870;4.316;2023-02-01T07:08:34;5.70;99.90
21787;DHT22;11055;50.870;4.316;2023-02-01T07:11:12;5.70;99.90
21787;DHT22;11055;50.870;4.316;2023-02-01T07:13:38;5.80;99.90
21787;DHT22;11055;50.870;4.316;2023-02-01T07:16:06;5.70;99.90
21787;DHT22;11055;50.870;4.316;2023-02-01T07:18:33;5.70;99.90
21787;DHT22;11055;50.870;4.316;2023-02-01T07:20:59;5.70;99.90
21787;DHT22;11055;50.870;4.316;2023-02-01T07:23:25;5.70;99.90
21787;DHT22;11055;50.870;4.316;2023-02-01T07:25:58;5.80;99.90
21787;DHT22;11055;50.870;4.316;2023-02-01T07:28:24;5.80;99.90
21787;DHT22;11055;50.870;4.316;2023-02-01T07:30:50;5.80;99.90
21787;DHT22;11055;50.870;4.316;2023-02-01T07:33:23;5.80;99.90
21787;DHT22;11055;50.870;4.316;2023-02-01T07:35:50;5.80;99.90
21787;DHT22;11055;50.870;4.316;2023-02-01T07:38:16;5.80;99.90
21787;DHT22;11055;50.870;4.316;2023-02-01T07:40:42;5.90;99.90
21787;DHT22;11055;50.870;4.316;2023-02-01T07:43:08;5.90;99.90
21787;DHT22;11055;50.870;4.316;2023-02-01T07:45:37;6.00;99.90
21787;DHT22;11055;50.870;4.316;2023-02-01T07:48:03;6.00;99.90
21787;DHT22;11055;50.870;4.316;2023-02-01T07:50:29;5.90;99.90
21787;DHT22;11055;50.870;4.316;2023-02-01T07:52:57;5.90;99.90
21787;DHT22;11055;50.870;4.316;2023-02-01T07:55:23;5.90;99.90
21787;DHT22;11055;50.870;4.316;2023-02-01T07:57:50;5.90;99.90
21787;DHT22;11055;50.870;4.316;2023-02-01T08:00:16;5.90;99.90
21787;DHT22;11055;50.870;4.316;2023-02-01T08:03:06;6.00;99.90
21787;DHT22;11055;50.870;4.316;2023-02-01T08:05:32;6.00;99.90
21787;DHT22;11055;50.870;4.316;2023-02-01T08:07:58;6.10;99.90
21787;DHT22;11055;50.870;4.316;2023-02-01T08:10:23;6.00;99.90
21787;DHT22;11055;50.870;4.316;2023-02-01T08:12:49;6.10;99.90
21787;DHT22;11055;50.870;4.316;2023-02-01T08:15:17;6.10;99.90
21787;DHT22;11055;50.870;4.316;2023-02-01T08:17:50;6.10;99.90
21787;DHT22;11055;50.870;4.316;2023-02-01T08:20:20;6.10;99.90
21787;DHT22;11055;50.870;4.316;2023-02-01T08:22:47;6.10;99.90
21787;DHT22;11055;50.870;4.316;2023-02-01T08:25:13;6.10;99.90
21787;DHT22;11055;50.870;4.316;2023-02-01T08:27:38;6.10;99.90
21787;DHT22;11055;50.870;4.316;2023-02-01T08:30:05;6.10;99.90
21787;DHT22;11055;50.870;4.316;2023-02-01T08:32:33;6.10;99.90
21787;DHT22;11055;50.870;4.316;2023-02-01T08:34:59;6.10;99.90
21787;DHT22;11055;50.870;4.316;2023-02-01T08:37:25;6.10;99.90
21787;DHT22;11055;50.870;4.316;2023-02-01T08:39:50;6.20;99.90
21787;DHT22;11055;50.870;4.316;2023-02-01T08:42:17;6.20;99.90
21787;DHT22;11055;50.870;4.316;2023-02-01T08:45:02;6.30;99.90
21787;DHT22;11055;50.870;4.316;2023-02-01T08:47:28;6.30;99.90
21787;DHT22;11055;50.870;4.316;2023-02-01T08:49:54;6.30;99.90
21787;DHT22;11055;50.870;4.316;2023-02-01T08:52:20;6.30;99.90
21787;DHT22;11055;50.870;4.316;2023-02-01T08:54:45;6.40;99.90
21787;DHT22;11055;50.870;4.316;2023-02-01T08:57:11;6.40;99.90
21787;DHT22;11055;50.870;4.316;2023-02-01T08:59:37;6.50;99.90
21787;DHT22;11055;50.870;4.316;2023-02-01T09:02:03;6.60;99.90
21787;DHT22;11055;50.870;4.316;2023-02-01T09:04:28;6.60;99.90
21787;DHT22;11055;50.870;4.316;2023-02-01T09:06:54;6.60;99.90
21787;DHT22;11055;50.870;4.316;2023-02-01T09:09:22;6.60;99.90
21787;DHT22;11055;50.870;4.316;2023-02-01T09:11:48;6.70;99.90
21787;DHT22;11055;50.870;4.316;2023-02-01T09:14:16;6.60;99.90
21787;DHT22;11055;50.870;4.316;2023-02-01T09:16:41;6.70;99.90
21787;DHT22;11055;50.870;4.316;2023-02-01T09:19:07;6.70;99.90
21787;DHT22;11055;50.870;4.316;2023-02-01T09:21:32;6.80;99.90
21787;DHT22;11055;50.870;4.316;2023-02-01T09:23:58;6.80;99.90
21787;DHT22;11055;50.870;4.316;2023-02-01T09:26:24;6.80;99.90
21787;DHT22;11055;50.870;4.316;2023-02-01T09:28:51;6.90;99.90
21787;DHT22;11055;50.870;4.316;2023-02-01T09:31:16;6.90;99.90
21787;DHT22;11055;50.870;4.316;2023-02-01T09:33:42;6.90;99.90
21787;DHT22;11055;50.870;4.316;2023-02-01T09:36:08;6.90;99.90
21787;DHT22;11055;50.870;4.316;2023-02-01T09:38:34;6.90;99.90
21787;DHT22;11055;50.870;4.316;2023-02-01T09:40:59;6.90;99.90
21787;DHT22;11055;50.870;4.316;2023-02-01T09:46:32;6.90;99.90
21787;DHT22;11055;50.870;4.316;2023-02-01T09:49:04;6.90;99.90
21787;DHT22;11055;50.870;4.316;2023-02-01T09:51:37;6.90;99.90
21787;DHT22;11055;50.870;4.316;2023-02-01T09:54:17;7.00;99.90
21787;DHT22;11055;50.870;4.316;2023-02-01T09:56:55;7.00;99.90
21787;DHT22;11055;50.870;4.316;2023-02-01T09:59:46;7.00;99.90
21787;DHT22;11055;50.870;4.316;2023-02-01T10:02:24;7.10;99.90
21787;DHT22;11055;50.870;4.316;2023-02-01T10:04:55;7.10;99.90
21787;DHT22;11055;50.870;4.316;2023-02-01T10:10:10;7.20;99.90
21787;DHT22;11055;50.870;4.316;2023-02-01T10:13:29;7.30;99.90
21787;DHT22;11055;50.870;4.316;2023-02-01T10:16:02;7.40;99.90
21787;DHT22;11055;50.870;4.316;2023-02-01T10:18:47;7.60;99.90
21787;DHT22;11055;50.870;4.316;2023-02-01T10:24:40;7.60;99.90
21787;DHT22;11055;50.870;4.316;2023-02-01T10:27:13;7.70;99.90
21787;DHT22;11055;50.870;4.316;2023-02-01T10:29:42;7.70;99.90
21787;DHT22;11055;50.870;4.316;2023-02-01T10:32:17;7.70;99.90
21787;DHT22;11055;50.870;4.316;2023-02-01T10:34:51;7.70;99.90
21787;DHT22;11055;50.870;4.316;2023-02-01T10:37:27;7.70;99.90
21787;DHT22;11055;50.870;4.316;2023-02-01T10:39:55;7.70;99.90
21787;DHT22;11055;50.870;4.316;2023-02-01T10:42:25;7.70;99.90
21787;DHT22;11055;50.870;4.316;2023-02-01T10:44:51;7.80;99.90
21787;DHT22;11055;50.870;4.316;2023-02-01T10:47:18;7.80;99.90
21787;DHT22;11055;50.870;4.316;2023-02-01T10:49:58;7.90;99.90
21787;DHT22;11055;50.870;4.316;2023-02-01T10:52:40;8.00;99.90
21787;DHT22;11055;50.870;4.316;2023-02-01T10:55:32;8.10;99.90
21787;DHT22;11055;50.870;4.316;2023-02-01T10:58:01;8.30;99.90
21787;DHT22;11055;50.870;4.316;2023-02-01T11:00:28;8.40;99.90
21787;DHT22;11055;50.870;4.316;2023-02-01T11:02:54;8.60;99.90
21787;DHT22;11055;50.870;4.316;2023-02-01T11:05:20;8.70;99.90
21787;DHT22;11055;50.870;4.316;2023-02-01T11:07:53;8.70;99.90
21787;DHT22;11055;50.870;4.316;2023-02-01T11:10:39;8.80;99.90
21787;DHT22;11055;50.870;4.316;2023-02-01T11:13:14;8.90;99.90
21787;DHT22;11055;50.870;4.316;2023-02-01T11:15:55;8.90;99.90
21787;DHT22;11055;50.870;4.316;2023-02-01T11:18:27;8.90;99.90
21787;DHT22;11055;50.870;4.316;2023-02-01T11:20:54;9.10;99.90
21787;DHT22;11055;50.870;4.316;2023-02-01T11:23:30;9.10;99.90
21787;DHT22;11055;50.870;4.316;2023-02-01T11:26:11;9.20;99.90
21787;DHT22;11055;50.870;4.316;2023-02-01T11:28:39;9.20;99.90
21787;DHT22;11055;50.870;4.316;2023-02-01T11:31:11;9.30;99.90
21787;DHT22;11055;50.870;4.316;2023-02-01T11:33:42;9.30;99.90
21787;DHT22;11055;50.870;4.316;2023-02-01T11:36:20;9.20;99.90
21787;DHT22;11055;50.870;4.316;2023-02-01T11:38:53;9.30;99.90
21787;DHT22;11055;50.870;4.316;2023-02-01T11:41:27;9.40;99.90
21787;DHT22;11055;50.870;4.316;2023-02-01T11:43:58;9.40;99.90
21787;DHT22;11055;50.870;4.316;2023-02-01T11:46:33;9.40;99.90
21787;DHT22;11055;50.870;4.316;2023-02-01T11:49:34;9.30;99.90
21787;DHT22;11055;50.870;4.316;2023-02-01T11:57:42;9.30;99.90
21787;DHT22;11055;50.870;4.316;2023-02-01T12:11:33;9.80;99.90
21787;DHT22;11055;50.870;4.316;2023-02-01T12:20:07;9.80;99.90
21787;DHT22;11055;50.870;4.316;2023-02-01T12:22:46;10.10;99.90
21787;DHT22;11055;50.870;4.316;2023-02-01T12:33:31;10.00;99.90
21787;DHT22;11055;50.870;4.316;2023-02-01T12:39:05;10.20;99.90
21787;DHT22;11055;50.870;4.316;2023-02-01T12:44:32;12.50;99.90
21787;DHT22;11055;50.870;4.316;2023-02-01T12:47:16;12.80;99.90
21787;DHT22;11055;50.870;4.316;2023-02-01T12:49:59;12.40;99.90
21787;DHT22;11055;50.870;4.316;2023-02-01T12:52:40;12.00;99.90
21787;DHT22;11055;50.870;4.316;2023-02-01T12:55:42;11.50;99.90
21787;DHT22;11055;50.870;4.316;2023-02-01T12:58:21;11.10;99.90
21787;DHT22;11055;50.870;4.316;2023-02-01T13:06:13;10.60;99.90
21787;DHT22;11055;50.870;4.316;2023-02-01T13:08:43;10.60;99.90
21787;DHT22;11055;50.870;4.316;2023-02-01T13:11:20;10.60;99.90
21787;DHT22;11055;50.870;4.316;2023-02-01T13:13:56;10.60;99.90
21787;DHT22;11055;50.870;4.316;2023-02-01T13:16:37;10.70;99.90
21787;DHT22;11055;50.870;4.316;2023-02-01T13:19:20;10.80;99.90
21787;DHT22;11055;50.870;4.316;2023-02-01T13:21:58;10.70;99.90
21787;DHT22;11055;50.870;4.316;2023-02-01T13:26:55;10.70;99.90
21787;DHT22;11055;50.870;4.316;2023-02-01T13:29:22;10.70;99.90
21787;DHT22;11055;50.870;4.316;2023-02-01T13:31:57;10.60;99.90
21787;DHT22;11055;50.870;4.316;2023-02-01T13:37:27;10.80;99.90
21787;DHT22;11055;50.870;4.316;2023-02-01T13:42:49;10.60;99.90
21787;DHT22;11055;50.870;4.316;2023-02-01T13:45:22;10.50;99.90
21787;DHT22;11055;50.870;4.316;2023-02-01T13:47:51;10.50;99.90
21787;DHT22;11055;50.870;4.316;2023-02-01T13:50:25;11.50;99.90
21787;DHT22;11055;50.870;4.316;2023-02-01T13:53:04;12.50;99.90
21787;DHT22;11055;50.870;4.316;2023-02-01T13:55:55;12.70;99.90
21787;DHT22;11055;50.870;4.316;2023-02-01T13:58:29;13.10;99.90
21787;DHT22;11055;50.870;4.316;2023-02-01T14:01:32;12.40;99.90
21787;DHT22;11055;50.870;4.316;2023-02-01T14:07:02;11.80;99.90
21787;DHT22;11055;50.870;4.316;2023-02-01T14:09:33;11.20;99.90
21787;DHT22;11055;50.870;4.316;2023-02-01T14:15:25;10.90;99.90
21787;DHT22;11055;50.870;4.316;2023-02-01T14:17:51;10.80;99.90
21787;DHT22;11055;50.870;4.316;2023-02-01T14:20:41;10.60;99.90
21787;DHT22;11055;50.870;4.316;2023-02-01T14:23:15;10.60;99.90
21787;DHT22;11055;50.870;4.316;2023-02-01T14:25:43;10.40;99.90
21787;DHT22;11055;50.870;4.316;2023-02-01T14:28:22;10.40;99.90
21787;DHT22;11055;50.870;4.316;2023-02-01T14:30:49;10.30;99.90
21787;DHT22;11055;50.870;4.316;2023-02-01T14:33:20;10.20;99.90
21787;DHT22;11055;50.870;4.316;2023-02-01T14:35:54;10.20;99.90
21787;DHT22;11055;50.870;4.316;2023-02-01T14:38:22;10.20;99.90
21787;DHT22;11055;50.870;4.316;2023-02-01T14:40:48;10.20;99.90
21787;DHT22;11055;50.870;4.316;2023-02-01T14:43:13;10.10;99.90
21787;DHT22;11055;50.870;4.316;2023-02-01T14:55:49;10.00;99.90
21787;DHT22;11055;50.870;4.316;2023-02-01T14:58:22;10.00;99.90
21787;DHT22;11055;50.870;4.316;2023-02-01T15:00:58;10.00;99.90
21787;DHT22;11055;50.870;4.316;2023-02-01T15:06:33;9.90;99.90
21787;DHT22;11055;50.870;4.316;2023-02-01T15:09:20;9.90;99.90
21787;DHT22;11055;50.870;4.316;2023-02-01T15:15:05;9.80;99.90
21787;DHT22;11055;50.870;4.316;2023-02-01T15:17:33;9.80;99.90
21787;DHT22;11055;50.870;4.316;2023-02-01T15:20:04;9.90;99.90
21787;DHT22;11055;50.870;4.316;2023-02-01T15:22:36;9.80;99.90
21787;DHT22;11055;50.870;4.316;2023-02-01T15:25:02;9.70;99.90
21787;DHT22;11055;50.870;4.316;2023-02-01T15:27:31;9.70;99.90
21787;DHT22;11055;50.870;4.316;2023-02-01T15:30:08;9.70;99.90
21787;DHT22;11055;50.870;4.316;2023-02-01T15:32:41;9.70;99.90
21787;DHT22;11055;50.870;4.316;2023-02-01T15:35:38;9.70;99.90
21787;DHT22;11055;50.870;4.316;2023-02-01T15:43:44;9.60;99.90
21787;DHT22;11055;50.870;4.316;2023-02-01T15:46:17;9.60;99.90
21787;DHT22;11055;50.870;4.316;2023-02-01T15:48:52;9.60;99.90
21787;DHT22;11055;50.870;4.316;2023-02-01T15:51:21;9.50;99.90
21787;DHT22;11055;50.870;4.316;2023-02-01T15:53:54;9.50;99.90
21787;DHT22;11055;50.870;4.316;2023-02-01T15:56:25;9.60;99.90
21787;DHT22;11055;50.870;4.316;2023-02-01T15:58:58;9.60;99.90
21787;DHT22;11055;50.870;4.316;2023-02-01T16:01:25;9.50;99.90
21787;DHT22;11055;50.870;4.316;2023-02-01T16:04:14;9.50;99.90
21787;DHT22;11055;50.870;4.316;2023-02-01T16:06:50;9.50;99.90
21787;DHT22;11055;50.870;4.316;2023-02-01T16:09:18;9.50;99.90
21787;DHT22;11055;50.870;4.316;2023-02-01T16:14:22;9.50;99.90
21787;DHT22;11055;50.870;4.316;2023-02-01T16:16:48;9.50;99.90
21787;DHT22;11055;50.870;4.316;2023-02-01T16:19:13;9.50;99.90
21787;DHT22;11055;50.870;4.316;2023-02-01T16:21:39;9.50;99.90
21787;DHT22;11055;50.870;4.316;2023-02-01T16:24:05;9.50;99.90
21787;DHT22;11055;50.870;4.316;2023-02-01T16:26:32;9.50;99.90
21787;DHT22;11055;50.870;4.316;2023-02-01T16:28:58;9.40;99.90
21787;DHT22;11055;50.870;4.316;2023-02-01T16:31:29;9.50;99.90
21787;DHT22;11055;50.870;4.316;2023-02-01T16:33:55;9.60;99.90
21787;DHT22;11055;50.870;4.316;2023-02-01T16:36:21;9.50;99.90
21787;DHT22;11055;50.870;4.316;2023-02-01T16:38:47;9.40;99.90
21787;DHT22;11055;50.870;4.316;2023-02-01T16:41:16;9.40;99.90
21787;DHT22;11055;50.870;4.316;2023-02-01T16:43:42;9.40;99.90
21787;DHT22;11055;50.870;4.316;2023-02-01T16:46:16;9.40;99.90
21787;DHT22;11055;50.870;4.316;2023-02-01T16:48:48;9.30;99.90
21787;DHT22;11055;50.870;4.316;2023-02-01T16:51:16;9.30;99.90
21787;DHT22;11055;50.870;4.316;2023-02-01T16:53:42;9.30;99.90
21787;DHT22;11055;50.870;4.316;2023-02-01T16:56:29;9.30;99.90
21787;DHT22;11055;50.870;4.316;2023-02-01T16:58:55;9.30;99.90
21787;DHT22;11055;50.870;4.316;2023-02-01T17:01:22;9.30;99.90
21787;DHT22;11055;50.870;4.316;2023-02-01T17:03:47;9.20;99.90
21787;DHT22;11055;50.870;4.316;2023-02-01T17:06:17;9.20;99.90
21787;DHT22;11055;50.870;4.316;2023-02-01T17:08:46;9.20;99.90
21787;DHT22;11055;50.870;4.316;2023-02-01T17:11:13;9.20;99.90
21787;DHT22;11055;50.870;4.316;2023-02-01T17:13:39;9.20;99.90
21787;DHT22;11055;50.870;4.316;2023-02-01T17:16:28;9.20;99.90
21787;DHT22;11055;50.870;4.316;2023-02-01T17:19:03;9.20;99.90
21787;DHT22;11055;50.870;4.316;2023-02-01T17:21:37;9.20;99.90
21787;DHT22;11055;50.870;4.316;2023-02-01T17:24:04;9.20;99.90
21787;DHT22;11055;50.870;4.316;2023-02-01T17:26:29;9.20;99.90
21787;DHT22;11055;50.870;4.316;2023-02-01T17:28:55;9.20;99.90
21787;DHT22;11055;50.870;4.316;2023-02-01T17:31:22;9.20;99.90
21787;DHT22;11055;50.870;4.316;2023-02-01T17:33:48;9.20;99.90
21787;DHT22;11055;50.870;4.316;2023-02-01T17:36:16;9.20;99.90
21787;DHT22;11055;50.870;4.316;2023-02-01T17:38:42;9.10;99.90
21787;DHT22;11055;50.870;4.316;2023-02-01T17:41:12;9.00;99.90
21787;DHT22;11055;50.870;4.316;2023-02-01T17:43:39;9.00;99.90
21787;DHT22;11055;50.870;4.316;2023-02-01T17:46:13;9.00;99.90
21787;DHT22;11055;50.870;4.316;2023-02-01T17:48:39;9.00;99.90
21787;DHT22;11055;50.870;4.316;2023-02-01T17:51:21;9.00;99.90
21787;DHT22;11055;50.870;4.316;2023-02-01T17:53:48;9.00;99.90
21787;DHT22;11055;50.870;4.316;2023-02-01T17:56:19;8.90;99.90
21787;DHT22;11055;50.870;4.316;2023-02-01T17:58:45;8.90;99.90
21787;DHT22;11055;50.870;4.316;2023-02-01T18:01:19;8.90;99.90
21787;DHT22;11055;50.870;4.316;2023-02-01T18:03:45;8.90;99.90
21787;DHT22;11055;50.870;4.316;2023-02-01T18:06:20;8.90;99.90
21787;DHT22;11055;50.870;4.316;2023-02-01T18:08:46;8.90;99.90
21787;DHT22;11055;50.870;4.316;2023-02-01T18:11:17;8.90;99.90